Rolla, Kansas
Current Conditions -  °F | °C
As of 10:53 PM on Friday 28 Nov 2014 (Local Time) from KGUY Reporting Station
Clear Clear  
Wind Chill: 11°   Ceiling: Unl
Heat Index: 11°   Visibility: 10mi
Dew Point: -7°   Wind: 12mph
Humidity: 27%   Direction: 250°WSW
Pressure: 29.75"   Gusts: NA
Location:  37.12°N, 101.63°W
Report Text: KGUY 290453Z AUTO 25010KT 10SM CLR 11/M07 A2975 RMK AO2 SLP046 T01111072
Loading
Personal Weather Stations






























Interactive Weather Map New forecast layout! Learn more

10-Day Weather Forecast

Advertisements
Track Severe Weather on mobile